Celebrity Century — 9HJI9 — position and weather

sailwx.info

Track history (hours):
 
Tides and Currents Weather Stations Pressure Air Temp Water Temp Dewpoint Dewpoint Depression Visibility Wind Speed Wind Dir Waves Ship Positions

Celebrity Century

Last reported at 2015-May-28 05:25 UTC. Time now 2015-May-29 03:53 UTC.
Position N 31°17' E 121°49'.

; draft 8.1 m.

Type: Ship. MMSI: 249054000.

Date/timePositionNaut miles runAvg speedWind from/ knotsBaromVisibWave heightAir tempDewpointWater temp
2015-May-28 05:25N 31°17' E 121°49'1112.5
2015-May-28 04:34N 31°22' E 121°38'7 6.4
2015-May-28 03:30N 31°25' E 121°30'0 0.0
2015-May-28 02:33N 31°25' E 121°30'0 0.0
2015-May-28 01:33N 31°25' E 121°30'0 0.0
2015-May-28 00:32N 31°25' E 121°30'0 0.0
2015-May-27 23:33N 31°25' E 121°30'0 0.0
2015-May-27 22:34N 31°25' E 121°30'0 0.0
2015-May-27 21:33N 31°25' E 121°30'3 2.6
2015-May-27 20:33N 31°24' E 121°33'8 8.4
2015-May-27 19:33N 31°20' E 121°42'1312.5
2015-May-27 18:33N 31°16' E 121°56'45110.3
2015-May-25 22:31N 33°37' E 130°24'0 0.1
2015-May-25 21:32N 33°37' E 130°24'8 7.9
2015-May-25 20:32N 33°41' E 130°16'8 7.8
2015-May-25 19:32N 33°48' E 130°12'8 7.9
2015-May-25 18:33N 33°55' E 130°07'8 8.0
2015-May-25 17:33N 34°02' E 130°02'8 8.5
2015-May-25 16:33N 34°09' E 129°57'9 8.7
2015-May-25 15:33N 34°16' E 129°51'8 8.5
2015-May-25 14:33N 34°24' E 129°46'46 8.7
2015-May-25 09:18N 35°00' E 129°14'7 8.8
2015-May-25 08:30N 35°05' E 129°07'2 0.2
2015-May-25 00:11N 35°05' E 129°05'0 0.0
2015-May-24 23:29N 35°05' E 129°05'0 0.3
2015-May-24 22:33N 35°05' E 129°05'6 5.3
2015-May-24 21:31N 35°00' E 129°09'6115.0
2015-May-24 17:29N 34°18' E 128°15'1814.7
2015-May-24 16:16N 34°08' E 127°58'30011.7
2015-May-23 14:29N 31°21' E 123°01'1617.0
2015-May-23 13:33N 31°12' E 122°46'1615.7
2015-May-23 12:33N 31°06' E 122°29'1313.1
2015-May-23 11:33N 31°09' E 122°14'1312.7
2015-May-23 10:33N 31°15' E 122°01'1211.8
2015-May-23 09:34N 31°18' E 121°47'10 9.9
2015-May-23 08:33N 31°22' E 121°37'2626.2
2015-May-23 07:33N 31°13' E 122°06'3332.8
2015-May-23 06:33N 31°25' E 121°30'364362.8
2015-May-23 05:33N 33°39' E 128°11'364358.2
2015-May-23 04:32N 31°25' E 121°30'0 0.0
2015-May-23 03:33N 31°25' E 121°30'0 0.0
2015-May-23 02:33N 31°25' E 121°30'5050.4
2015-May-23 01:33N 31°06' E 122°25'8 8.3
2015-May-23 00:33N 31°08' E 122°16'4242.4
2015-May-22 23:33N 31°25' E 121°30'0 0.0
2015-May-22 22:33N 31°25' E 121°30'5 5.1
2015-May-22 21:34N 31°23' E 121°36'10 9.7
2015-May-22 20:34N 31°18' E 121°46'1111.0
2015-May-22 19:33N 31°15' E 121°58'1111.2
2015-May-22 18:33N 31°11' E 122°10'1312.6
2015-May-22 17:34N 31°06' E 122°24'4413.6
2015-May-22 14:22N 31°19' E 123°13'1713.3
2015-May-22 13:07N 31°20' E 123°32'814.2
2015-May-22 12:33N 31°23' E 123°41'1414.4
2015-May-22 11:33N 31°29' E 123°56'1614.7
2015-May-22 10:29N 31°38' E 124°11'1414.9
2015-May-22 09:33N 31°45' E 124°25'1413.8
2015-May-22 08:33N 31°51' E 124°40'1312.4
2015-May-22 07:33N 31°55' E 124°54'2712.6
2015-May-22 05:25N 32°08' E 125°22'3813.4
2015-May-22 02:33N 32°23' E 126°03'3013.4
2015-May-22 00:21N 32°35' E 126°36'2613.2
2015-May-21 22:22N 32°44' E 127°04'7913.1
2015-May-21 16:19N 33°17' E 128°30'4912.6
2015-May-21 12:26N 33°34' E 129°25'1213.2
2015-May-21 11:33N 33°36' E 129°39'1414.3
2015-May-21 10:33N 33°42' E 129°55'1514.7
2015-May-21 09:33N 33°44' E 130°12'1111.1
2015-May-21 08:33N 33°37' E 130°23'1 0.1
2015-May-20 23:31N 33°37' E 130°24'0 0.1
2015-May-20 22:32N 33°37' E 130°24'10 9.7
2015-May-20 21:33N 33°43' E 130°15'1514.9
2015-May-20 20:33N 33°42' E 129°57'1616.2
2015-May-20 19:33N 33°40' E 129°38'160 9.4
2015-May-20 02:32N 33°34' E 126°25'1515.0
2015-May-20 01:33N 33°29' E 126°09'1816.1
2015-May-20 00:25N 33°17' E 125°52'1618.2
2015-May-19 23:33N 33°07' E 125°37'2118.6
2015-May-19 22:25N 32°55' E 125°17'8219.8
2015-May-19 18:17N 32°03' E 124°02'1520.9
2015-May-19 17:33N 31°52' E 123°49'2019.8
2015-May-19 16:33N 31°43' E 123°29'2019.9
2015-May-19 15:33N 31°29' E 123°11'1918.7
2015-May-19 14:33N 31°17' E 122°54'1716.7
2015-May-19 13:33N 31°06' E 122°40'1515.4
2015-May-19 12:34N 31°06' E 122°22'1111.3
2015-May-19 11:33N 31°11' E 122°10'1313.0
2015-May-19 10:33N 31°15' E 121°56'1413.7
2015-May-19 09:34N 31°20' E 121°41'1010.3
2015-May-19 08:33N 31°25' E 121°30'0 0.0
2015-May-19 07:33N 31°25' E 121°30'0 0.0
2015-May-19 06:33N 31°25' E 121°30'0 0.0
2015-May-19 05:34N 31°25' E 121°30'0 0.0
2015-May-19 04:33N 31°25' E 121°30'322318.4
2015-May-19 03:33N 33°38' E 127°17'322325.5
2015-May-19 02:33N 31°25' E 121°30'0 0.0
2015-May-19 01:34N 31°25' E 121°30'2928.6
2015-May-19 00:33N 31°15' E 122°02'2929.0
2015-May-18 23:33N 31°25' E 121°30'0 0.0
2015-May-18 22:33N 31°25' E 121°30'0 0.1
2015-May-18 21:34N 31°25' E 121°30'9 9.4
2015-May-18 20:33N 31°21' E 121°40'1413.8
2015-May-18 19:34N 31°16' E 121°55'1413.6
2015-May-18 18:33N 31°11' E 122°10'1212.3
2015-May-18 17:33N 31°06' E 122°24'1511.2
2015-May-18 16:14N 31°07' E 122°41'910.8
2015-May-18 15:22N 31°10' E 122°51'1311.5
2015-May-18 14:16N 31°17' E 123°03'1313.0
2015-May-18 13:18N 31°23' E 123°17'  
Track history (hours):
 
Tides and Currents Weather Stations Pressure Air Temp Water Temp Dewpoint Dewpoint Depression Visibility Wind Speed Wind Dir Waves Ship Positions

Celebrity Century

Last reported at 2015-May-28 05:25 UTC. Time now 2015-May-29 03:53 UTC.
Position N 31°17' E 121°49'.

; draft 8.1 m.

Type: Ship. MMSI: 249054000.

Date/timePositionNaut miles runAvg speedWind from/ knotsBaromVisibWave heightAir tempDewpointWater temp
2015-May-28 05:25N 31°17' E 121°49'1112.5
2015-May-28 04:34N 31°22' E 121°38'7 6.4
2015-May-28 03:30N 31°25' E 121°30'0 0.0
2015-May-28 02:33N 31°25' E 121°30'0 0.0
2015-May-28 01:33N 31°25' E 121°30'0 0.0
2015-May-28 00:32N 31°25' E 121°30'0 0.0
2015-May-27 23:33N 31°25' E 121°30'0 0.0
2015-May-27 22:34N 31°25' E 121°30'0 0.0
2015-May-27 21:33N 31°25' E 121°30'3 2.6
2015-May-27 20:33N 31°24' E 121°33'8 8.4
2015-May-27 19:33N 31°20' E 121°42'1312.5
2015-May-27 18:33N 31°16' E 121°56'45110.3
2015-May-25 22:31N 33°37' E 130°24'0 0.1
2015-May-25 21:32N 33°37' E 130°24'8 7.9
2015-May-25 20:32N 33°41' E 130°16'8 7.8
2015-May-25 19:32N 33°48' E 130°12'8 7.9
2015-May-25 18:33N 33°55' E 130°07'8 8.0
2015-May-25 17:33N 34°02' E 130°02'8 8.5
2015-May-25 16:33N 34°09' E 129°57'9 8.7
2015-May-25 15:33N 34°16' E 129°51'8 8.5
2015-May-25 14:33N 34°24' E 129°46'46 8.7
2015-May-25 09:18N 35°00' E 129°14'7 8.8
2015-May-25 08:30N 35°05' E 129°07'2 0.2
2015-May-25 00:11N 35°05' E 129°05'0 0.0
2015-May-24 23:29N 35°05' E 129°05'0 0.3
2015-May-24 22:33N 35°05' E 129°05'6 5.3
2015-May-24 21:31N 35°00' E 129°09'6115.0
2015-May-24 17:29N 34°18' E 128°15'1814.7
2015-May-24 16:16N 34°08' E 127°58'30011.7
2015-May-23 14:29N 31°21' E 123°01'1617.0
2015-May-23 13:33N 31°12' E 122°46'1615.7
2015-May-23 12:33N 31°06' E 122°29'1313.1
2015-May-23 11:33N 31°09' E 122°14'1312.7
2015-May-23 10:33N 31°15' E 122°01'1211.8
2015-May-23 09:34N 31°18' E 121°47'10 9.9
2015-May-23 08:33N 31°22' E 121°37'2626.2
2015-May-23 07:33N 31°13' E 122°06'3332.8
2015-May-23 06:33N 31°25' E 121°30'364362.8
2015-May-23 05:33N 33°39' E 128°11'364358.2
2015-May-23 04:32N 31°25' E 121°30'0 0.0
2015-May-23 03:33N 31°25' E 121°30'0 0.0
2015-May-23 02:33N 31°25' E 121°30'5050.4
2015-May-23 01:33N 31°06' E 122°25'8 8.3
2015-May-23 00:33N 31°08' E 122°16'4242.4
2015-May-22 23:33N 31°25' E 121°30'0 0.0
2015-May-22 22:33N 31°25' E 121°30'5 5.1
2015-May-22 21:34N 31°23' E 121°36'10 9.7
2015-May-22 20:34N 31°18' E 121°46'1111.0
2015-May-22 19:33N 31°15' E 121°58'1111.2
2015-May-22 18:33N 31°11' E 122°10'1312.6
2015-May-22 17:34N 31°06' E 122°24'4413.6
2015-May-22 14:22N 31°19' E 123°13'1713.3
2015-May-22 13:07N 31°20' E 123°32'814.2
2015-May-22 12:33N 31°23' E 123°41'1414.4
2015-May-22 11:33N 31°29' E 123°56'1614.7
2015-May-22 10:29N 31°38' E 124°11'1414.9
2015-May-22 09:33N 31°45' E 124°25'1413.8
2015-May-22 08:33N 31°51' E 124°40'1312.4
2015-May-22 07:33N 31°55' E 124°54'2712.6
2015-May-22 05:25N 32°08' E 125°22'3813.4
2015-May-22 02:33N 32°23' E 126°03'3013.4
2015-May-22 00:21N 32°35' E 126°36'2613.2
2015-May-21 22:22N 32°44' E 127°04'7913.1
2015-May-21 16:19N 33°17' E 128°30'4912.6
2015-May-21 12:26N 33°34' E 129°25'1213.2
2015-May-21 11:33N 33°36' E 129°39'1414.3
2015-May-21 10:33N 33°42' E 129°55'1514.7
2015-May-21 09:33N 33°44' E 130°12'1111.1
2015-May-21 08:33N 33°37' E 130°23'1 0.1
2015-May-20 23:31N 33°37' E 130°24'0 0.1
2015-May-20 22:32N 33°37' E 130°24'10 9.7
2015-May-20 21:33N 33°43' E 130°15'1514.9
2015-May-20 20:33N 33°42' E 129°57'1616.2
2015-May-20 19:33N 33°40' E 129°38'160 9.4
2015-May-20 02:32N 33°34' E 126°25'1515.0
2015-May-20 01:33N 33°29' E 126°09'1816.1
2015-May-20 00:25N 33°17' E 125°52'1618.2
2015-May-19 23:33N 33°07' E 125°37'2118.6
2015-May-19 22:25N 32°55' E 125°17'8219.8
2015-May-19 18:17N 32°03' E 124°02'1520.9
2015-May-19 17:33N 31°52' E 123°49'2019.8
2015-May-19 16:33N 31°43' E 123°29'2019.9
2015-May-19 15:33N 31°29' E 123°11'1918.7
2015-May-19 14:33N 31°17' E 122°54'1716.7
2015-May-19 13:33N 31°06' E 122°40'1515.4
2015-May-19 12:34N 31°06' E 122°22'1111.3
2015-May-19 11:33N 31°11' E 122°10'1313.0
2015-May-19 10:33N 31°15' E 121°56'1413.7
2015-May-19 09:34N 31°20' E 121°41'1010.3
2015-May-19 08:33N 31°25' E 121°30'0 0.0
2015-May-19 07:33N 31°25' E 121°30'0 0.0
2015-May-19 06:33N 31°25' E 121°30'0 0.0
2015-May-19 05:34N 31°25' E 121°30'0 0.0
2015-May-19 04:33N 31°25' E 121°30'322318.4
2015-May-19 03:33N 33°38' E 127°17'322325.5
2015-May-19 02:33N 31°25' E 121°30'0 0.0
2015-May-19 01:34N 31°25' E 121°30'2928.6
2015-May-19 00:33N 31°15' E 122°02'2929.0
2015-May-18 23:33N 31°25' E 121°30'0 0.0
2015-May-18 22:33N 31°25' E 121°30'0 0.1
2015-May-18 21:34N 31°25' E 121°30'9 9.4
2015-May-18 20:33N 31°21' E 121°40'1413.8
2015-May-18 19:34N 31°16' E 121°55'1413.6
2015-May-18 18:33N 31°11' E 122°10'1212.3
2015-May-18 17:33N 31°06' E 122°24'1511.2
2015-May-18 16:14N 31°07' E 122°41'910.8
2015-May-18 15:22N 31°10' E 122°51'1311.5
2015-May-18 14:16N 31°17' E 123°03'1313.0
2015-May-18 13:18N 31°23' E 123°17'  

Dump ship's entire track history